sensor_id;sensor_type;location;lat;lon;timestamp;P1;durP1;ratioP1;P2;durP2;ratioP2
505;SDS011;551;48.524;9.056;2023-08-06T00:00:04;7.43;;;6.20;;
505;SDS011;551;48.524;9.056;2023-08-06T00:02:30;9.10;;;4.80;;
505;SDS011;551;48.524;9.056;2023-08-06T00:04:56;6.83;;;6.23;;
505;SDS011;551;48.524;9.056;2023-08-06T00:07:21;8.00;;;5.17;;
505;SDS011;551;48.524;9.056;2023-08-06T00:09:47;5.90;;;5.40;;
505;SDS011;551;48.524;9.056;2023-08-06T00:12:12;7.90;;;6.10;;
505;SDS011;551;48.524;9.056;2023-08-06T00:14:38;9.23;;;5.00;;
505;SDS011;551;48.524;9.056;2023-08-06T00:17:03;8.93;;;5.73;;
505;SDS011;551;48.524;9.056;2023-08-06T00:19:29;7.03;;;5.40;;
505;SDS011;551;48.524;9.056;2023-08-06T00:21:56;10.77;;;5.40;;
505;SDS011;551;48.524;9.056;2023-08-06T00:24:22;8.13;;;5.10;;
505;SDS011;551;48.524;9.056;2023-08-06T00:26:47;9.83;;;5.60;;
505;SDS011;551;48.524;9.056;2023-08-06T00:29:13;6.30;;;5.23;;
505;SDS011;551;48.524;9.056;2023-08-06T00:31:38;6.23;;;5.37;;
505;SDS011;551;48.524;9.056;2023-08-06T00:34:04;5.40;;;4.90;;
505;SDS011;551;48.524;9.056;2023-08-06T00:36:29;11.93;;;5.87;;
505;SDS011;551;48.524;9.056;2023-08-06T00:38:55;9.00;;;5.77;;
505;SDS011;551;48.524;9.056;2023-08-06T00:41:20;7.30;;;5.97;;
505;SDS011;551;48.524;9.056;2023-08-06T00:43:46;7.73;;;5.60;;
505;SDS011;551;48.524;9.056;2023-08-06T00:46:12;5.80;;;4.97;;
505;SDS011;551;48.524;9.056;2023-08-06T00:48:38;5.90;;;5.20;;
505;SDS011;551;48.524;9.056;2023-08-06T00:51:04;7.43;;;6.00;;
505;SDS011;551;48.524;9.056;2023-08-06T00:53:30;7.60;;;5.30;;
505;SDS011;551;48.524;9.056;2023-08-06T00:55:56;6.10;;;5.50;;
505;SDS011;551;48.524;9.056;2023-08-06T00:58:22;5.13;;;4.63;;
505;SDS011;551;48.524;9.056;2023-08-06T01:00:48;10.50;;;6.10;;
505;SDS011;551;48.524;9.056;2023-08-06T01:03:14;5.20;;;4.70;;
505;SDS011;551;48.524;9.056;2023-08-06T01:05:40;5.70;;;5.03;;
505;SDS011;551;48.524;9.056;2023-08-06T01:13:47;8.37;;;5.80;;
505;SDS011;551;48.524;9.056;2023-08-06T01:16:18;6.77;;;5.70;;
505;SDS011;551;48.524;9.056;2023-08-06T01:18:46;8.20;;;5.77;;
505;SDS011;551;48.524;9.056;2023-08-06T01:21:14;5.40;;;4.73;;
505;SDS011;551;48.524;9.056;2023-08-06T01:23:43;5.90;;;5.30;;
505;SDS011;551;48.524;9.056;2023-08-06T01:31:31;9.63;;;5.07;;
505;SDS011;551;48.524;9.056;2023-08-06T01:34:00;6.50;;;4.30;;
505;SDS011;551;48.524;9.056;2023-08-06T01:36:26;5.23;;;4.13;;
505;SDS011;551;48.524;9.056;2023-08-06T01:38:53;4.73;;;4.17;;
505;SDS011;551;48.524;9.056;2023-08-06T01:41:19;7.63;;;6.30;;
505;SDS011;551;48.524;9.056;2023-08-06T01:43:45;5.00;;;4.57;;
505;SDS011;551;48.524;9.056;2023-08-06T01:46:10;6.80;;;5.00;;
505;SDS011;551;48.524;9.056;2023-08-06T01:48:36;5.23;;;4.50;;
505;SDS011;551;48.524;9.056;2023-08-06T01:51:04;5.60;;;4.40;;
505;SDS011;551;48.524;9.056;2023-08-06T01:53:30;6.53;;;4.70;;
505;SDS011;551;48.524;9.056;2023-08-06T01:55:56;6.37;;;5.30;;
505;SDS011;551;48.524;9.056;2023-08-06T01:58:22;4.63;;;4.23;;
505;SDS011;551;48.524;9.056;2023-08-06T02:00:48;6.27;;;5.30;;
505;SDS011;551;48.524;9.056;2023-08-06T02:03:13;6.00;;;4.90;;
505;SDS011;551;48.524;9.056;2023-08-06T02:05:39;8.23;;;6.70;;
505;SDS011;551;48.524;9.056;2023-08-06T02:08:05;6.90;;;4.40;;
505;SDS011;551;48.524;9.056;2023-08-06T02:10:30;12.00;;;5.00;;
505;SDS011;551;48.524;9.056;2023-08-06T02:12:56;4.83;;;4.33;;
505;SDS011;551;48.524;9.056;2023-08-06T02:15:21;5.30;;;4.80;;
505;SDS011;551;48.524;9.056;2023-08-06T02:17:47;7.87;;;4.37;;
505;SDS011;551;48.524;9.056;2023-08-06T02:20:12;6.67;;;4.20;;
505;SDS011;551;48.524;9.056;2023-08-06T02:22:38;5.20;;;4.20;;
505;SDS011;551;48.524;9.056;2023-08-06T02:25:03;6.07;;;4.47;;
505;SDS011;551;48.524;9.056;2023-08-06T02:27:29;4.40;;;3.97;;
505;SDS011;551;48.524;9.056;2023-08-06T02:29:55;5.10;;;4.70;;
505;SDS011;551;48.524;9.056;2023-08-06T02:32:20;5.27;;;4.20;;
505;SDS011;551;48.524;9.056;2023-08-06T02:34:46;4.70;;;4.30;;
505;SDS011;551;48.524;9.056;2023-08-06T02:37:11;4.20;;;3.80;;
505;SDS011;551;48.524;9.056;2023-08-06T02:39:37;3.50;;;3.20;;
505;SDS011;551;48.524;9.056;2023-08-06T02:42:05;6.50;;;4.03;;
505;SDS011;551;48.524;9.056;2023-08-06T02:44:34;12.30;;;4.30;;
505;SDS011;551;48.524;9.056;2023-08-06T02:47:00;4.10;;;3.70;;
505;SDS011;551;48.524;9.056;2023-08-06T02:49:26;6.70;;;3.80;;
505;SDS011;551;48.524;9.056;2023-08-06T02:51:51;6.50;;;3.60;;
505;SDS011;551;48.524;9.056;2023-08-06T02:54:17;3.80;;;3.50;;
505;SDS011;551;48.524;9.056;2023-08-06T02:56:43;4.73;;;3.70;;
505;SDS011;551;48.524;9.056;2023-08-06T02:59:10;4.03;;;3.20;;
505;SDS011;551;48.524;9.056;2023-08-06T03:01:36;6.10;;;3.37;;
505;SDS011;551;48.524;9.056;2023-08-06T03:04:02;7.27;;;3.50;;
505;SDS011;551;48.524;9.056;2023-08-06T03:06:28;5.93;;;3.70;;
505;SDS011;551;48.524;9.056;2023-08-06T03:08:54;3.47;;;3.27;;
505;SDS011;551;48.524;9.056;2023-08-06T03:11:19;3.53;;;3.23;;
505;SDS011;551;48.524;9.056;2023-08-06T03:13:45;3.70;;;3.40;;
505;SDS011;551;48.524;9.056;2023-08-06T03:16:11;6.80;;;4.13;;
505;SDS011;551;48.524;9.056;2023-08-06T03:18:37;4.17;;;3.77;;
505;SDS011;551;48.524;9.056;2023-08-06T03:21:03;3.73;;;3.37;;
505;SDS011;551;48.524;9.056;2023-08-06T03:23:28;4.83;;;3.57;;
505;SDS011;551;48.524;9.056;2023-08-06T03:25:54;4.07;;;3.60;;
505;SDS011;551;48.524;9.056;2023-08-06T03:28:19;4.20;;;3.80;;
505;SDS011;551;48.524;9.056;2023-08-06T03:30:45;4.20;;;3.77;;
505;SDS011;551;48.524;9.056;2023-08-06T03:33:10;2.93;;;2.73;;
505;SDS011;551;48.524;9.056;2023-08-06T03:35:36;5.10;;;3.53;;
505;SDS011;551;48.524;9.056;2023-08-06T03:38:01;4.70;;;4.30;;
505;SDS011;551;48.524;9.056;2023-08-06T03:40:27;3.80;;;3.50;;
505;SDS011;551;48.524;9.056;2023-08-06T03:42:52;4.10;;;3.57;;
505;SDS011;551;48.524;9.056;2023-08-06T03:45:18;4.40;;;3.10;;
505;SDS011;551;48.524;9.056;2023-08-06T03:47:43;5.63;;;5.13;;
505;SDS011;551;48.524;9.056;2023-08-06T03:50:09;3.67;;;3.00;;
505;SDS011;551;48.524;9.056;2023-08-06T03:52:35;3.80;;;3.50;;
505;SDS011;551;48.524;9.056;2023-08-06T03:55:00;6.63;;;3.57;;
505;SDS011;551;48.524;9.056;2023-08-06T03:57:26;6.70;;;2.83;;
505;SDS011;551;48.524;9.056;2023-08-06T03:59:51;4.53;;;2.50;;
505;SDS011;551;48.524;9.056;2023-08-06T04:02:17;3.10;;;2.37;;
505;SDS011;551;48.524;9.056;2023-08-06T04:04:42;3.30;;;2.30;;
505;SDS011;551;48.524;9.056;2023-08-06T04:07:08;4.33;;;2.67;;
505;SDS011;551;48.524;9.056;2023-08-06T04:09:33;1.70;;;1.60;;
505;SDS011;551;48.524;9.056;2023-08-06T04:12:15;2.10;;;1.90;;
505;SDS011;551;48.524;9.056;2023-08-06T04:14:41;2.83;;;1.90;;
505;SDS011;551;48.524;9.056;2023-08-06T04:17:06;4.97;;;2.00;;
505;SDS011;551;48.524;9.056;2023-08-06T04:19:32;6.20;;;2.27;;
505;SDS011;551;48.524;9.056;2023-08-06T04:21:57;3.10;;;1.70;;
505;SDS011;551;48.524;9.056;2023-08-06T04:24:23;2.50;;;2.13;;
505;SDS011;551;48.524;9.056;2023-08-06T04:26:48;1.50;;;1.40;;
505;SDS011;551;48.524;9.056;2023-08-06T04:29:14;3.33;;;1.37;;
505;SDS011;551;48.524;9.056;2023-08-06T04:31:39;2.80;;;1.40;;
505;SDS011;551;48.524;9.056;2023-08-06T04:34:04;1.97;;;1.40;;
505;SDS011;551;48.524;9.056;2023-08-06T04:36:30;2.47;;;1.53;;
505;SDS011;551;48.524;9.056;2023-08-06T04:38:56;6.50;;;1.80;;
505;SDS011;551;48.524;9.056;2023-08-06T04:41:21;2.80;;;1.40;;
505;SDS011;551;48.524;9.056;2023-08-06T04:43:47;1.77;;;1.53;;
505;SDS011;551;48.524;9.056;2023-08-06T04:46:12;1.77;;;1.40;;
505;SDS011;551;48.524;9.056;2023-08-06T04:48:38;3.30;;;1.80;;
505;SDS011;551;48.524;9.056;2023-08-06T04:51:03;2.33;;;2.13;;
505;SDS011;551;48.524;9.056;2023-08-06T04:53:29;8.00;;;1.70;;
505;SDS011;551;48.524;9.056;2023-08-06T04:55:56;2.20;;;1.30;;
505;SDS011;551;48.524;9.056;2023-08-06T04:58:21;1.40;;;1.30;;
505;SDS011;551;48.524;9.056;2023-08-06T05:00:46;4.07;;;1.30;;
505;SDS011;551;48.524;9.056;2023-08-06T05:03:12;2.87;;;1.40;;
505;SDS011;551;48.524;9.056;2023-08-06T05:05:39;2.30;;;1.40;;
505;SDS011;551;48.524;9.056;2023-08-06T05:08:06;2.03;;;1.43;;
505;SDS011;551;48.524;9.056;2023-08-06T05:10:31;1.83;;;1.20;;
505;SDS011;551;48.524;9.056;2023-08-06T05:12:57;4.70;;;1.30;;
505;SDS011;551;48.524;9.056;2023-08-06T05:15:23;5.53;;;1.73;;
505;SDS011;551;48.524;9.056;2023-08-06T05:17:50;1.57;;;1.40;;
505;SDS011;551;48.524;9.056;2023-08-06T05:20:15;2.73;;;1.50;;
505;SDS011;551;48.524;9.056;2023-08-06T05:22:42;1.77;;;1.20;;
505;SDS011;551;48.524;9.056;2023-08-06T05:25:08;4.03;;;1.23;;
505;SDS011;551;48.524;9.056;2023-08-06T05:27:33;3.80;;;1.73;;
505;SDS011;551;48.524;9.056;2023-08-06T05:29:59;2.73;;;1.10;;
505;SDS011;551;48.524;9.056;2023-08-06T05:32:25;4.03;;;1.10;;
505;SDS011;551;48.524;9.056;2023-08-06T05:34:50;2.67;;;1.23;;
505;SDS011;551;48.524;9.056;2023-08-06T05:37:16;1.00;;;0.93;;
505;SDS011;551;48.524;9.056;2023-08-06T05:39:41;1.80;;;1.27;;
505;SDS011;551;48.524;9.056;2023-08-06T05:42:07;1.13;;;1.00;;
505;SDS011;551;48.524;9.056;2023-08-06T05:44:32;1.47;;;1.27;;
505;SDS011;551;48.524;9.056;2023-08-06T05:46:58;3.80;;;1.60;;
505;SDS011;551;48.524;9.056;2023-08-06T05:49:23;1.23;;;1.13;;
505;SDS011;551;48.524;9.056;2023-08-06T05:51:49;1.20;;;1.10;;
505;SDS011;551;48.524;9.056;2023-08-06T05:54:14;1.20;;;0.90;;
505;SDS011;551;48.524;9.056;2023-08-06T05:56:40;1.43;;;1.00;;
505;SDS011;551;48.524;9.056;2023-08-06T05:59:05;2.00;;;1.07;;
505;SDS011;551;48.524;9.056;2023-08-06T06:01:31;3.00;;;1.30;;
505;SDS011;551;48.524;9.056;2023-08-06T06:03:56;1.40;;;1.30;;
505;SDS011;551;48.524;9.056;2023-08-06T06:06:22;1.57;;;1.10;;
505;SDS011;551;48.524;9.056;2023-08-06T06:08:47;1.40;;;1.30;;
505;SDS011;551;48.524;9.056;2023-08-06T06:11:13;2.40;;;1.40;;
505;SDS011;551;48.524;9.056;2023-08-06T06:13:38;2.50;;;1.10;;
505;SDS011;551;48.524;9.056;2023-08-06T06:16:04;2.50;;;1.00;;
505;SDS011;551;48.524;9.056;2023-08-06T06:18:33;1.20;;;1.10;;
505;SDS011;551;48.524;9.056;2023-08-06T06:21:01;1.60;;;1.20;;
505;SDS011;551;48.524;9.056;2023-08-06T06:23:27;2.20;;;1.10;;
505;SDS011;551;48.524;9.056;2023-08-06T06:25:52;1.33;;;1.00;;
505;SDS011;551;48.524;9.056;2023-08-06T06:28:18;3.07;;;1.10;;
505;SDS011;551;48.524;9.056;2023-08-06T06:30:44;1.30;;;1.00;;
505;SDS011;551;48.524;9.056;2023-08-06T06:33:09;1.30;;;1.20;;
505;SDS011;551;48.524;9.056;2023-08-06T06:35:35;1.67;;;1.00;;
505;SDS011;551;48.524;9.056;2023-08-06T06:38:01;2.07;;;1.10;;
505;SDS011;551;48.524;9.056;2023-08-06T06:40:27;3.00;;;1.30;;
505;SDS011;551;48.524;9.056;2023-08-06T06:42:53;1.40;;;1.30;;
505;SDS011;551;48.524;9.056;2023-08-06T06:45:18;1.87;;;1.20;;
505;SDS011;551;48.524;9.056;2023-08-06T06:47:44;3.37;;;1.20;;
505;SDS011;551;48.524;9.056;2023-08-06T06:50:09;2.00;;;1.17;;
505;SDS011;551;48.524;9.056;2023-08-06T06:52:35;1.10;;;1.00;;
505;SDS011;551;48.524;9.056;2023-08-06T06:55:00;5.60;;;1.50;;
505;SDS011;551;48.524;9.056;2023-08-06T06:57:26;1.43;;;0.90;;
505;SDS011;551;48.524;9.056;2023-08-06T06:59:51;2.27;;;1.10;;
505;SDS011;551;48.524;9.056;2023-08-06T07:02:17;1.97;;;0.83;;
505;SDS011;551;48.524;9.056;2023-08-06T07:04:42;1.37;;;1.00;;
505;SDS011;551;48.524;9.056;2023-08-06T07:07:08;1.10;;;0.90;;
505;SDS011;551;48.524;9.056;2023-08-06T07:09:34;1.00;;;0.90;;
505;SDS011;551;48.524;9.056;2023-08-06T07:12:00;0.90;;;0.90;;
505;SDS011;551;48.524;9.056;2023-08-06T07:14:26;0.97;;;0.97;;
505;SDS011;551;48.524;9.056;2023-08-06T07:16:53;5.83;;;1.03;;
505;SDS011;551;48.524;9.056;2023-08-06T07:19:18;2.80;;;1.03;;
505;SDS011;551;48.524;9.056;2023-08-06T07:21:44;1.63;;;1.27;;
505;SDS011;551;48.524;9.056;2023-08-06T07:24:09;0.87;;;0.87;;
505;SDS011;551;48.524;9.056;2023-08-06T07:26:36;1.23;;;0.90;;
505;SDS011;551;48.524;9.056;2023-08-06T07:29:01;1.00;;;0.90;;
505;SDS011;551;48.524;9.056;2023-08-06T07:31:27;0.90;;;0.90;;
505;SDS011;551;48.524;9.056;2023-08-06T07:33:53;1.93;;;1.00;;
505;SDS011;551;48.524;9.056;2023-08-06T07:36:18;3.40;;;1.10;;
505;SDS011;551;48.524;9.056;2023-08-06T07:38:44;1.30;;;1.20;;
505;SDS011;551;48.524;9.056;2023-08-06T07:41:10;2.07;;;0.90;;
505;SDS011;551;48.524;9.056;2023-08-06T07:43:35;0.80;;;0.80;;
505;SDS011;551;48.524;9.056;2023-08-06T07:46:01;1.43;;;0.83;;
505;SDS011;551;48.524;9.056;2023-08-06T07:48:27;1.00;;;0.90;;
505;SDS011;551;48.524;9.056;2023-08-06T07:50:55;1.00;;;0.70;;
505;SDS011;551;48.524;9.056;2023-08-06T07:53:21;1.20;;;0.70;;
505;SDS011;551;48.524;9.056;2023-08-06T07:55:51;0.70;;;0.70;;
505;SDS011;551;48.524;9.056;2023-08-06T07:58:17;0.80;;;0.80;;
505;SDS011;551;48.524;9.056;2023-08-06T08:00:43;1.17;;;0.80;;
505;SDS011;551;48.524;9.056;2023-08-06T08:03:10;0.73;;;0.73;;
505;SDS011;551;48.524;9.056;2023-08-06T08:05:38;0.67;;;0.67;;
505;SDS011;551;48.524;9.056;2023-08-06T08:08:03;1.43;;;0.90;;
505;SDS011;551;48.524;9.056;2023-08-06T08:10:29;0.80;;;0.80;;
505;SDS011;551;48.524;9.056;2023-08-06T08:12:55;0.70;;;0.70;;
505;SDS011;551;48.524;9.056;2023-08-06T08:15:21;0.90;;;0.90;;
505;SDS011;551;48.524;9.056;2023-08-06T08:17:46;1.10;;;0.80;;
505;SDS011;551;48.524;9.056;2023-08-06T08:20:12;0.83;;;0.83;;
505;SDS011;551;48.524;9.056;2023-08-06T08:22:38;0.73;;;0.73;;
505;SDS011;551;48.524;9.056;2023-08-06T08:25:04;0.80;;;0.70;;
505;SDS011;551;48.524;9.056;2023-08-06T08:27:30;0.90;;;0.90;;
505;SDS011;551;48.524;9.056;2023-08-06T08:29:55;0.80;;;0.80;;
505;SDS011;551;48.524;9.056;2023-08-06T08:32:21;0.70;;;0.70;;
505;SDS011;551;48.524;9.056;2023-08-06T08:34:47;1.00;;;0.80;;
505;SDS011;551;48.524;9.056;2023-08-06T08:37:13;1.50;;;0.90;;
505;SDS011;551;48.524;9.056;2023-08-06T08:39:38;0.83;;;0.80;;
505;SDS011;551;48.524;9.056;2023-08-06T08:42:04;0.80;;;0.80;;
505;SDS011;551;48.524;9.056;2023-08-06T08:44:32;0.80;;;0.80;;
505;SDS011;551;48.524;9.056;2023-08-06T08:46:59;0.83;;;0.70;;
505;SDS011;551;48.524;9.056;2023-08-06T08:49:24;0.83;;;0.83;;
505;SDS011;551;48.524;9.056;2023-08-06T08:51:52;0.70;;;0.70;;
505;SDS011;551;48.524;9.056;2023-08-06T08:54:20;1.30;;;0.80;;
505;SDS011;551;48.524;9.056;2023-08-06T08:56:48;0.67;;;0.67;;
505;SDS011;551;48.524;9.056;2023-08-06T08:59:14;1.10;;;0.73;;
505;SDS011;551;48.524;9.056;2023-08-06T09:01:40;1.00;;;0.90;;
505;SDS011;551;48.524;9.056;2023-08-06T09:04:09;2.33;;;0.77;;
505;SDS011;551;48.524;9.056;2023-08-06T09:06:36;0.70;;;0.70;;
505;SDS011;551;48.524;9.056;2023-08-06T09:09:06;0.80;;;0.80;;
505;SDS011;551;48.524;9.056;2023-08-06T09:11:35;0.77;;;0.73;;
505;SDS011;551;48.524;9.056;2023-08-06T09:14:07;0.80;;;0.80;;
505;SDS011;551;48.524;9.056;2023-08-06T09:16:36;0.80;;;0.80;;
505;SDS011;551;48.524;9.056;2023-08-06T09:19:12;0.60;;;0.60;;
505;SDS011;551;48.524;9.056;2023-08-06T09:21:41;0.73;;;0.73;;
505;SDS011;551;48.524;9.056;2023-08-06T09:24:11;0.70;;;0.70;;
505;SDS011;551;48.524;9.056;2023-08-06T09:26:38;0.70;;;0.70;;
505;SDS011;551;48.524;9.056;2023-08-06T09:29:07;0.70;;;0.70;;
505;SDS011;551;48.524;9.056;2023-08-06T09:31:45;0.80;;;0.80;;
505;SDS011;551;48.524;9.056;2023-08-06T09:34:16;1.33;;;0.70;;
505;SDS011;551;48.524;9.056;2023-08-06T09:36:42;0.80;;;0.80;;
505;SDS011;551;48.524;9.056;2023-08-06T09:39:14;0.70;;;0.70;;
505;SDS011;551;48.524;9.056;2023-08-06T09:42:01;1.37;;;0.90;;
505;SDS011;551;48.524;9.056;2023-08-06T09:44:27;0.80;;;0.80;;
505;SDS011;551;48.524;9.056;2023-08-06T09:46:59;1.20;;;0.70;;
505;SDS011;551;48.524;9.056;2023-08-06T09:51:53;0.70;;;0.70;;
505;SDS011;551;48.524;9.056;2023-08-06T09:54:23;0.70;;;0.70;;
505;SDS011;551;48.524;9.056;2023-08-06T09:56:51;3.60;;;0.80;;
505;SDS011;551;48.524;9.056;2023-08-06T09:59:20;1.90;;;1.00;;
505;SDS011;551;48.524;9.056;2023-08-06T10:01:46;2.77;;;0.80;;
505;SDS011;551;48.524;9.056;2023-08-06T10:04:13;1.00;;;0.70;;
505;SDS011;551;48.524;9.056;2023-08-06T10:06:41;0.70;;;0.70;;
505;SDS011;551;48.524;9.056;2023-08-06T10:09:07;2.40;;;1.33;;
505;SDS011;551;48.524;9.056;2023-08-06T10:11:34;0.70;;;0.70;;
505;SDS011;551;48.524;9.056;2023-08-06T10:17:01;0.83;;;0.83;;
505;SDS011;551;48.524;9.056;2023-08-06T10:19:27;0.80;;;0.80;;
505;SDS011;551;48.524;9.056;2023-08-06T10:24:55;1.17;;;0.80;;
505;SDS011;551;48.524;9.056;2023-08-06T10:27:29;0.83;;;0.83;;
505;SDS011;551;48.524;9.056;2023-08-06T10:32:54;2.10;;;0.90;;
505;SDS011;551;48.524;9.056;2023-08-06T10:38:12;0.70;;;0.70;;
505;SDS011;551;48.524;9.056;2023-08-06T10:40:41;0.80;;;0.80;;
505;SDS011;551;48.524;9.056;2023-08-06T10:45:55;0.80;;;0.80;;
505;SDS011;551;48.524;9.056;2023-08-06T10:48:33;0.70;;;0.70;;
505;SDS011;551;48.524;9.056;2023-08-06T10:51:06;0.70;;;0.70;;
505;SDS011;551;48.524;9.056;2023-08-06T10:53:33;1.70;;;0.80;;
505;SDS011;551;48.524;9.056;2023-08-06T10:55:59;0.77;;;0.77;;
505;SDS011;551;48.524;9.056;2023-08-06T10:58:25;0.70;;;0.70;;
505;SDS011;551;48.524;9.056;2023-08-06T11:00:51;0.73;;;0.73;;
505;SDS011;551;48.524;9.056;2023-08-06T11:03:17;1.03;;;0.73;;
505;SDS011;551;48.524;9.056;2023-08-06T11:05:48;0.90;;;0.70;;
505;SDS011;551;48.524;9.056;2023-08-06T11:08:27;1.43;;;0.80;;
505;SDS011;551;48.524;9.056;2023-08-06T11:10:54;1.03;;;0.70;;
505;SDS011;551;48.524;9.056;2023-08-06T11:13:20;1.70;;;0.80;;
505;SDS011;551;48.524;9.056;2023-08-06T11:15:46;0.90;;;0.90;;
505;SDS011;551;48.524;9.056;2023-08-06T11:18:12;0.80;;;0.80;;
505;SDS011;551;48.524;9.056;2023-08-06T11:20:38;0.87;;;0.87;;
505;SDS011;551;48.524;9.056;2023-08-06T11:23:04;2.83;;;1.07;;
505;SDS011;551;48.524;9.056;2023-08-06T11:25:30;0.73;;;0.73;;
505;SDS011;551;48.524;9.056;2023-08-06T11:27:56;0.80;;;0.80;;
505;SDS011;551;48.524;9.056;2023-08-06T11:30:21;1.10;;;1.10;;
505;SDS011;551;48.524;9.056;2023-08-06T11:32:47;0.80;;;0.80;;
505;SDS011;551;48.524;9.056;2023-08-06T11:35:14;3.10;;;1.03;;
505;SDS011;551;48.524;9.056;2023-08-06T11:37:43;1.67;;;1.57;;
505;SDS011;551;48.524;9.056;2023-08-06T11:40:14;2.40;;;1.10;;
505;SDS011;551;48.524;9.056;2023-08-06T11:42:40;1.33;;;1.00;;
505;SDS011;551;48.524;9.056;2023-08-06T11:45:07;0.80;;;0.80;;
505;SDS011;551;48.524;9.056;2023-08-06T11:47:37;1.20;;;0.80;;
505;SDS011;551;48.524;9.056;2023-08-06T11:50:05;1.20;;;1.00;;
505;SDS011;551;48.524;9.056;2023-08-06T11:52:31;1.13;;;0.80;;
505;SDS011;551;48.524;9.056;2023-08-06T11:55:00;0.90;;;0.90;;
505;SDS011;551;48.524;9.056;2023-08-06T11:57:31;0.80;;;0.80;;
505;SDS011;551;48.524;9.056;2023-08-06T12:00:11;1.13;;;1.03;;
505;SDS011;551;48.524;9.056;2023-08-06T12:02:41;1.03;;;0.93;;
505;SDS011;551;48.524;9.056;2023-08-06T12:05:10;1.07;;;0.97;;
505;SDS011;551;48.524;9.056;2023-08-06T12:07:39;1.10;;;1.00;;
505;SDS011;551;48.524;9.056;2023-08-06T12:10:06;1.07;;;1.00;;
505;SDS011;551;48.524;9.056;2023-08-06T12:12:33;1.20;;;1.10;;
505;SDS011;551;48.524;9.056;2023-08-06T12:15:00;1.03;;;1.03;;
505;SDS011;551;48.524;9.056;2023-08-06T12:17:25;1.33;;;1.23;;
505;SDS011;551;48.524;9.056;2023-08-06T12:19:51;1.40;;;1.30;;
505;SDS011;551;48.524;9.056;2023-08-06T12:22:17;1.10;;;1.10;;
505;SDS011;551;48.524;9.056;2023-08-06T12:24:44;1.40;;;1.30;;
505;SDS011;551;48.524;9.056;2023-08-06T12:27:10;1.40;;;1.30;;
505;SDS011;551;48.524;9.056;2023-08-06T12:29:43;3.43;;;1.23;;
505;SDS011;551;48.524;9.056;2023-08-06T12:32:10;1.50;;;1.40;;
505;SDS011;551;48.524;9.056;2023-08-06T12:34:39;1.80;;;1.60;;
505;SDS011;551;48.524;9.056;2023-08-06T12:37:06;1.30;;;1.20;;
505;SDS011;551;48.524;9.056;2023-08-06T12:39:33;2.23;;;1.37;;
505;SDS011;551;48.524;9.056;2023-08-06T12:41:59;1.53;;;1.43;;
505;SDS011;551;48.524;9.056;2023-08-06T12:44:26;3.57;;;1.50;;
505;SDS011;551;48.524;9.056;2023-08-06T12:46:52;2.53;;;1.43;;
505;SDS011;551;48.524;9.056;2023-08-06T12:49:19;2.00;;;1.33;;
505;SDS011;551;48.524;9.056;2023-08-06T12:51:46;1.30;;;1.20;;
505;SDS011;551;48.524;9.056;2023-08-06T12:54:12;1.27;;;1.17;;
505;SDS011;551;48.524;9.056;2023-08-06T12:56:37;1.23;;;1.13;;
505;SDS011;551;48.524;9.056;2023-08-06T12:59:03;1.33;;;1.23;;
505;SDS011;551;48.524;9.056;2023-08-06T13:01:28;1.20;;;1.10;;
505;SDS011;551;48.524;9.056;2023-08-06T13:03:54;1.30;;;1.20;;
505;SDS011;551;48.524;9.056;2023-08-06T13:06:19;1.23;;;1.17;;
505;SDS011;551;48.524;9.056;2023-08-06T13:08:45;1.33;;;1.23;;
505;SDS011;551;48.524;9.056;2023-08-06T13:11:10;1.30;;;1.20;;
505;SDS011;551;48.524;9.056;2023-08-06T13:13:36;2.70;;;1.30;;
505;SDS011;551;48.524;9.056;2023-08-06T13:16:01;1.40;;;1.20;;
505;SDS011;551;48.524;9.056;2023-08-06T13:18:27;1.97;;;1.10;;
505;SDS011;551;48.524;9.056;2023-08-06T13:20:54;1.30;;;1.20;;
505;SDS011;551;48.524;9.056;2023-08-06T13:23:20;1.17;;;1.10;;
505;SDS011;551;48.524;9.056;2023-08-06T13:25:46;2.10;;;1.07;;
505;SDS011;551;48.524;9.056;2023-08-06T13:28:11;1.00;;;1.00;;
505;SDS011;551;48.524;9.056;2023-08-06T13:30:38;0.83;;;0.83;;
505;SDS011;551;48.524;9.056;2023-08-06T13:33:07;1.73;;;1.20;;
505;SDS011;551;48.524;9.056;2023-08-06T13:35:33;0.90;;;0.90;;
505;SDS011;551;48.524;9.056;2023-08-06T13:37:59;1.17;;;1.10;;
505;SDS011;551;48.524;9.056;2023-08-06T13:40:24;0.93;;;0.90;;
505;SDS011;551;48.524;9.056;2023-08-06T13:42:50;1.10;;;1.00;;
505;SDS011;551;48.524;9.056;2023-08-06T13:45:15;1.10;;;1.10;;
505;SDS011;551;48.524;9.056;2023-08-06T13:47:41;1.00;;;1.00;;
505;SDS011;551;48.524;9.056;2023-08-06T13:50:06;1.07;;;1.00;;
505;SDS011;551;48.524;9.056;2023-08-06T13:52:32;1.03;;;0.97;;
505;SDS011;551;48.524;9.056;2023-08-06T13:55:00;1.20;;;1.10;;
505;SDS011;551;48.524;9.056;2023-08-06T13:57:25;0.90;;;0.90;;
505;SDS011;551;48.524;9.056;2023-08-06T13:59:51;1.07;;;0.87;;
505;SDS011;551;48.524;9.056;2023-08-06T14:02:16;1.00;;;1.00;;
505;SDS011;551;48.524;9.056;2023-08-06T14:04:42;0.80;;;0.80;;
505;SDS011;551;48.524;9.056;2023-08-06T14:07:07;0.90;;;0.90;;
505;SDS011;551;48.524;9.056;2023-08-06T14:09:33;1.73;;;0.90;;
505;SDS011;551;48.524;9.056;2023-08-06T14:11:59;1.10;;;1.00;;
505;SDS011;551;48.524;9.056;2023-08-06T14:14:25;0.90;;;0.90;;
505;SDS011;551;48.524;9.056;2023-08-06T14:16:52;1.80;;;1.50;;
505;SDS011;551;48.524;9.056;2023-08-06T14:19:19;1.20;;;1.10;;
505;SDS011;551;48.524;9.056;2023-08-06T14:21:44;1.50;;;1.30;;
505;SDS011;551;48.524;9.056;2023-08-06T14:24:10;1.70;;;1.17;;
505;SDS011;551;48.524;9.056;2023-08-06T14:26:35;1.77;;;1.07;;
505;SDS011;551;48.524;9.056;2023-08-06T14:29:01;1.13;;;1.03;;
505;SDS011;551;48.524;9.056;2023-08-06T14:31:27;1.40;;;1.10;;
505;SDS011;551;48.524;9.056;2023-08-06T14:33:52;1.20;;;0.90;;
505;SDS011;551;48.524;9.056;2023-08-06T14:36:18;1.23;;;1.00;;
505;SDS011;551;48.524;9.056;2023-08-06T14:38:44;1.53;;;1.30;;
505;SDS011;551;48.524;9.056;2023-08-06T14:41:09;1.00;;;0.97;;
505;SDS011;551;48.524;9.056;2023-08-06T14:43:35;0.80;;;0.80;;
505;SDS011;551;48.524;9.056;2023-08-06T14:46:01;1.07;;;0.97;;
505;SDS011;551;48.524;9.056;2023-08-06T14:48:26;1.10;;;0.90;;
505;SDS011;551;48.524;9.056;2023-08-06T14:50:52;1.17;;;1.07;;
505;SDS011;551;48.524;9.056;2023-08-06T14:53:18;1.27;;;1.17;;
505;SDS011;551;48.524;9.056;2023-08-06T14:55:44;5.47;;;1.20;;
505;SDS011;551;48.524;9.056;2023-08-06T14:58:09;0.90;;;0.90;;
505;SDS011;551;48.524;9.056;2023-08-06T15:00:35;3.43;;;1.00;;
505;SDS011;551;48.524;9.056;2023-08-06T15:03:00;0.80;;;0.80;;
505;SDS011;551;48.524;9.056;2023-08-06T15:05:26;1.33;;;0.93;;
505;SDS011;551;48.524;9.056;2023-08-06T15:07:51;1.73;;;0.93;;
505;SDS011;551;48.524;9.056;2023-08-06T15:10:18;0.90;;;0.90;;
505;SDS011;551;48.524;9.056;2023-08-06T15:12:44;0.93;;;0.90;;
505;SDS011;551;48.524;9.056;2023-08-06T15:15:09;2.00;;;1.00;;
505;SDS011;551;48.524;9.056;2023-08-06T15:17:35;0.93;;;0.93;;
505;SDS011;551;48.524;9.056;2023-08-06T15:20:01;1.20;;;1.10;;
505;SDS011;551;48.524;9.056;2023-08-06T15:22:27;1.27;;;1.17;;
505;SDS011;551;48.524;9.056;2023-08-06T15:24:56;1.17;;;1.10;;
505;SDS011;551;48.524;9.056;2023-08-06T15:27:22;1.20;;;1.10;;
505;SDS011;551;48.524;9.056;2023-08-06T15:29:48;1.60;;;1.50;;
505;SDS011;551;48.524;9.056;2023-08-06T15:32:14;1.30;;;1.20;;
505;SDS011;551;48.524;9.056;2023-08-06T15:34:40;1.20;;;1.10;;
505;SDS011;551;48.524;9.056;2023-08-06T15:37:05;1.20;;;1.10;;
505;SDS011;551;48.524;9.056;2023-08-06T15:39:32;1.30;;;1.20;;
505;SDS011;551;48.524;9.056;2023-08-06T15:41:58;1.00;;;1.00;;
505;SDS011;551;48.524;9.056;2023-08-06T15:44:23;1.20;;;1.10;;
505;SDS011;551;48.524;9.056;2023-08-06T15:46:49;1.27;;;1.17;;
505;SDS011;551;48.524;9.056;2023-08-06T15:49:14;2.47;;;1.17;;
505;SDS011;551;48.524;9.056;2023-08-06T15:51:40;1.57;;;1.13;;
505;SDS011;551;48.524;9.056;2023-08-06T15:54:06;2.90;;;1.00;;
505;SDS011;551;48.524;9.056;2023-08-06T15:56:32;1.50;;;1.40;;
505;SDS011;551;48.524;9.056;2023-08-06T15:58:58;1.43;;;1.20;;
505;SDS011;551;48.524;9.056;2023-08-06T16:01:43;2.40;;;1.23;;
505;SDS011;551;48.524;9.056;2023-08-06T16:04:08;1.17;;;1.00;;
505;SDS011;551;48.524;9.056;2023-08-06T16:06:34;1.20;;;1.10;;